sensor_id;sensor_type;location;lat;lon;timestamp;pressure;altitude;pressure_sealevel;temperature;humidity
6196;BME280;3131;42.630;23.382;2023-01-31T00:00:25;93886.73;;;-1.11;100.00
6196;BME280;3131;42.630;23.382;2023-01-31T00:02:54;93897.02;;;-1.25;100.00
6196;BME280;3131;42.630;23.382;2023-01-31T00:05:25;93902.98;;;-1.45;100.00
6196;BME280;3131;42.630;23.382;2023-01-31T00:07:54;93911.03;;;-1.38;100.00
6196;BME280;3131;42.630;23.382;2023-01-31T00:10:24;93910.16;;;-1.23;100.00
6196;BME280;3131;42.630;23.382;2023-01-31T00:12:53;93917.41;;;-1.17;100.00
6196;BME280;3131;42.630;23.382;2023-01-31T00:15:23;93918.41;;;-1.09;100.00
6196;BME280;3131;42.630;23.382;2023-01-31T00:17:53;93920.97;;;-1.12;100.00
6196;BME280;3131;42.630;23.382;2023-01-31T00:20:22;93916.20;;;-1.18;100.00
6196;BME280;3131;42.630;23.382;2023-01-31T00:22:52;93917.45;;;-1.05;100.00
6196;BME280;3131;42.630;23.382;2023-01-31T00:25:21;93904.27;;;-1.05;100.00
6196;BME280;3131;42.630;23.382;2023-01-31T00:27:51;93902.39;;;-1.25;100.00
6196;BME280;3131;42.630;23.382;2023-01-31T00:33:07;93899.23;;;-1.02;100.00
6196;BME280;3131;42.630;23.382;2023-01-31T00:35:39;93904.77;;;-1.07;100.00
6196;BME280;3131;42.630;23.382;2023-01-31T00:38:09;93907.80;;;-0.99;100.00
6196;BME280;3131;42.630;23.382;2023-01-31T00:40:38;93905.20;;;-0.95;100.00
6196;BME280;3131;42.630;23.382;2023-01-31T00:43:08;93914.70;;;-0.96;100.00
6196;BME280;3131;42.630;23.382;2023-01-31T00:45:37;93926.61;;;-1.22;100.00
6196;BME280;3131;42.630;23.382;2023-01-31T00:48:06;93921.04;;;-1.28;100.00
6196;BME280;3131;42.630;23.382;2023-01-31T00:50:36;93923.27;;;-1.21;100.00
6196;BME280;3131;42.630;23.382;2023-01-31T00:53:06;93922.09;;;-1.22;100.00
6196;BME280;3131;42.630;23.382;2023-01-31T00:55:36;93916.11;;;-1.15;100.00
6196;BME280;3131;42.630;23.382;2023-01-31T00:58:05;93914.59;;;-1.06;100.00
6196;BME280;3131;42.630;23.382;2023-01-31T01:00:34;93908.78;;;-1.05;100.00
6196;BME280;3131;42.630;23.382;2023-01-31T01:03:04;93909.80;;;-0.97;100.00
6196;BME280;3131;42.630;23.382;2023-01-31T01:05:33;93901.39;;;-0.91;100.00
6196;BME280;3131;42.630;23.382;2023-01-31T01:08:03;93901.23;;;-0.87;100.00
6196;BME280;3131;42.630;23.382;2023-01-31T01:10:32;93903.89;;;-0.80;100.00
6196;BME280;3131;42.630;23.382;2023-01-31T01:13:02;93897.98;;;-0.89;100.00
6196;BME280;3131;42.630;23.382;2023-01-31T01:15:35;93912.31;;;-0.99;100.00
6196;BME280;3131;42.630;23.382;2023-01-31T01:18:03;93920.35;;;-1.05;100.00
6196;BME280;3131;42.630;23.382;2023-01-31T01:20:33;93918.37;;;-1.07;100.00
6196;BME280;3131;42.630;23.382;2023-01-31T01:23:04;93912.99;;;-1.07;100.00
6196;BME280;3131;42.630;23.382;2023-01-31T01:25:42;93916.64;;;-1.05;100.00
6196;BME280;3131;42.630;23.382;2023-01-31T01:28:11;93917.45;;;-1.05;100.00
6196;BME280;3131;42.630;23.382;2023-01-31T01:30:41;93907.77;;;-0.98;100.00
6196;BME280;3131;42.630;23.382;2023-01-31T01:33:10;93903.09;;;-0.94;100.00
6196;BME280;3131;42.630;23.382;2023-01-31T01:35:40;93897.62;;;-0.90;100.00
6196;BME280;3131;42.630;23.382;2023-01-31T01:38:09;93900.06;;;-0.88;100.00
6196;BME280;3131;42.630;23.382;2023-01-31T01:40:39;93899.09;;;-0.84;100.00
6196;BME280;3131;42.630;23.382;2023-01-31T01:43:10;93894.14;;;-0.71;100.00
6196;BME280;3131;42.630;23.382;2023-01-31T01:45:39;93893.17;;;-0.67;100.00
6196;BME280;3131;42.630;23.382;2023-01-31T01:48:14;93882.51;;;-0.56;100.00
6196;BME280;3131;42.630;23.382;2023-01-31T01:50:46;93894.94;;;-0.44;100.00
6196;BME280;3131;42.630;23.382;2023-01-31T01:53:19;93895.80;;;-0.33;100.00
6196;BME280;3131;42.630;23.382;2023-01-31T01:55:52;93894.30;;;-0.26;100.00
6196;BME280;3131;42.630;23.382;2023-01-31T01:58:23;93899.14;;;-0.09;100.00
6196;BME280;3131;42.630;23.382;2023-01-31T02:00:53;93897.81;;;0.29;100.00
6196;BME280;3131;42.630;23.382;2023-01-31T02:03:23;93899.83;;;0.53;100.00
6196;BME280;3131;42.630;23.382;2023-01-31T02:05:55;93919.27;;;0.76;98.13
6196;BME280;3131;42.630;23.382;2023-01-31T02:08:27;93910.56;;;0.87;94.78
6196;BME280;3131;42.630;23.382;2023-01-31T02:11:00;93908.45;;;0.88;94.30
6196;BME280;3131;42.630;23.382;2023-01-31T02:16:18;93907.61;;;1.11;88.21
6196;BME280;3131;42.630;23.382;2023-01-31T02:18:48;93922.11;;;1.10;85.76
6196;BME280;3131;42.630;23.382;2023-01-31T02:24:58;93920.92;;;0.99;85.33
6196;BME280;3131;42.630;23.382;2023-01-31T02:31:20;93935.05;;;0.97;85.95
6196;BME280;3131;42.630;23.382;2023-01-31T02:33:52;93907.44;;;0.82;86.93
6196;BME280;3131;42.630;23.382;2023-01-31T02:36:28;93899.12;;;0.73;87.93
6196;BME280;3131;42.630;23.382;2023-01-31T02:39:04;93899.81;;;0.77;86.81
6196;BME280;3131;42.630;23.382;2023-01-31T02:44:19;93914.04;;;0.83;85.60
6196;BME280;3131;42.630;23.382;2023-01-31T02:47:10;93915.51;;;0.77;85.30
6196;BME280;3131;42.630;23.382;2023-01-31T02:49:44;93925.76;;;0.80;84.75
6196;BME280;3131;42.630;23.382;2023-01-31T02:52:17;93941.38;;;0.82;85.11
6196;BME280;3131;42.630;23.382;2023-01-31T02:54:59;93910.20;;;0.86;85.57
6196;BME280;3131;42.630;23.382;2023-01-31T02:57:49;93923.42;;;0.87;87.79
6196;BME280;3131;42.630;23.382;2023-01-31T03:00:21;93930.61;;;0.83;89.93
6196;BME280;3131;42.630;23.382;2023-01-31T03:02:51;93933.94;;;0.82;90.78
6196;BME280;3131;42.630;23.382;2023-01-31T03:05:20;93942.52;;;0.85;91.41
6196;BME280;3131;42.630;23.382;2023-01-31T03:07:53;93942.52;;;0.85;91.83
6196;BME280;3131;42.630;23.382;2023-01-31T03:10:34;93941.70;;;0.84;93.08
6196;BME280;3131;42.630;23.382;2023-01-31T03:13:13;93953.86;;;0.80;94.46
6196;BME280;3131;42.630;23.382;2023-01-31T03:15:52;93942.30;;;0.79;95.81
6196;BME280;3131;42.630;23.382;2023-01-31T03:21:33;93966.82;;;0.77;100.00
6196;BME280;3131;42.630;23.382;2023-01-31T03:24:05;93966.23;;;0.70;100.00
6196;BME280;3131;42.630;23.382;2023-01-31T03:26:35;93965.11;;;0.67;100.00
6196;BME280;3131;42.630;23.382;2023-01-31T03:29:05;93973.39;;;0.66;100.00
6196;BME280;3131;42.630;23.382;2023-01-31T03:31:38;93969.48;;;0.60;100.00
6196;BME280;3131;42.630;23.382;2023-01-31T03:34:10;93969.08;;;0.59;100.00
6196;BME280;3131;42.630;23.382;2023-01-31T03:36:45;93980.20;;;0.61;100.00
6196;BME280;3131;42.630;23.382;2023-01-31T03:39:18;93962.88;;;0.59;100.00
6196;BME280;3131;42.630;23.382;2023-01-31T03:41:56;93979.81;;;0.60;100.00
6196;BME280;3131;42.630;23.382;2023-01-31T03:44:35;93972.28;;;0.51;100.00
6196;BME280;3131;42.630;23.382;2023-01-31T03:47:09;93988.11;;;0.47;100.00
6196;BME280;3131;42.630;23.382;2023-01-31T03:49:40;93997.20;;;0.48;100.00
6196;BME280;3131;42.630;23.382;2023-01-31T03:52:11;94000.22;;;0.44;100.00
6196;BME280;3131;42.630;23.382;2023-01-31T03:57:32;94003.80;;;0.48;100.00
6196;BME280;3131;42.630;23.382;2023-01-31T04:00:05;93995.67;;;0.32;100.00
6196;BME280;3131;42.630;23.382;2023-01-31T04:02:38;93991.25;;;0.29;100.00
6196;BME280;3131;42.630;23.382;2023-01-31T04:05:10;93998.62;;;0.30;100.00
6196;BME280;3131;42.630;23.382;2023-01-31T04:07:41;93999.06;;;0.30;100.00
6196;BME280;3131;42.630;23.382;2023-01-31T04:10:13;94004.16;;;0.25;100.00
6196;BME280;3131;42.630;23.382;2023-01-31T04:12:42;93993.43;;;0.25;100.00
6196;BME280;3131;42.630;23.382;2023-01-31T04:15:12;93994.98;;;0.15;100.00
6196;BME280;3131;42.630;23.382;2023-01-31T04:17:42;93993.64;;;0.18;100.00
6196;BME280;3131;42.630;23.382;2023-01-31T04:22:52;93999.16;;;0.27;100.00
6196;BME280;3131;42.630;23.382;2023-01-31T04:25:21;94007.77;;;0.16;100.00
6196;BME280;3131;42.630;23.382;2023-01-31T04:27:50;94008.31;;;0.13;100.00
6196;BME280;3131;42.630;23.382;2023-01-31T04:30:20;94004.69;;;0.10;100.00
6196;BME280;3131;42.630;23.382;2023-01-31T04:32:49;94008.51;;;0.07;100.00
6196;BME280;3131;42.630;23.382;2023-01-31T04:35:18;94002.87;;;0.02;100.00
6196;BME280;3131;42.630;23.382;2023-01-31T04:37:47;93988.20;;;-0.05;100.00
6196;BME280;3131;42.630;23.382;2023-01-31T04:40:17;94013.86;;;-0.06;100.00
6196;BME280;3131;42.630;23.382;2023-01-31T04:42:46;94008.60;;;-0.10;100.00
6196;BME280;3131;42.630;23.382;2023-01-31T04:45:17;94010.81;;;-0.14;100.00
6196;BME280;3131;42.630;23.382;2023-01-31T04:47:46;94014.25;;;-0.18;100.00
6196;BME280;3131;42.630;23.382;2023-01-31T04:50:16;94017.91;;;-0.16;100.00
6196;BME280;3131;42.630;23.382;2023-01-31T04:52:48;94015.59;;;-0.21;100.00
6196;BME280;3131;42.630;23.382;2023-01-31T04:55:18;94035.88;;;-0.23;100.00
6196;BME280;3131;42.630;23.382;2023-01-31T04:57:47;94033.36;;;-0.21;100.00
6196;BME280;3131;42.630;23.382;2023-01-31T05:00:19;94022.58;;;-0.20;100.00
6196;BME280;3131;42.630;23.382;2023-01-31T05:02:48;94032.56;;;-0.22;100.00
6196;BME280;3131;42.630;23.382;2023-01-31T05:05:17;94038.08;;;-0.27;100.00
6196;BME280;3131;42.630;23.382;2023-01-31T05:07:47;94039.25;;;-0.26;100.00
6196;BME280;3131;42.630;23.382;2023-01-31T05:10:17;94033.83;;;-0.24;100.00
6196;BME280;3131;42.630;23.382;2023-01-31T05:12:47;94043.41;;;-0.26;100.00
6196;BME280;3131;42.630;23.382;2023-01-31T05:15:17;94037.18;;;-0.25;100.00
6196;BME280;3131;42.630;23.382;2023-01-31T05:17:52;94037.80;;;-0.18;100.00
6196;BME280;3131;42.630;23.382;2023-01-31T05:20:23;94034.95;;;-0.19;100.00
6196;BME280;3131;42.630;23.382;2023-01-31T05:22:52;94034.08;;;-0.18;100.00
6196;BME280;3131;42.630;23.382;2023-01-31T05:25:21;94026.55;;;-0.15;100.00
6196;BME280;3131;42.630;23.382;2023-01-31T05:27:51;94035.56;;;-0.12;100.00
6196;BME280;3131;42.630;23.382;2023-01-31T05:30:21;94044.88;;;-0.07;100.00
6196;BME280;3131;42.630;23.382;2023-01-31T05:32:51;94044.04;;;-0.06;100.00
6196;BME280;3131;42.630;23.382;2023-01-31T05:35:20;94039.48;;;-0.07;100.00
6196;BME280;3131;42.630;23.382;2023-01-31T05:37:52;94031.58;;;-0.05;100.00
6196;BME280;3131;42.630;23.382;2023-01-31T05:40:22;94046.45;;;-0.05;100.00
6196;BME280;3131;42.630;23.382;2023-01-31T05:42:55;94060.86;;;-0.03;100.00
6196;BME280;3131;42.630;23.382;2023-01-31T05:45:25;94057.42;;;0.02;100.00
6196;BME280;3131;42.630;23.382;2023-01-31T05:47:55;94057.48;;;0.00;100.00
6196;BME280;3131;42.630;23.382;2023-01-31T05:50:25;94068.30;;;-0.03;100.00
6196;BME280;3131;42.630;23.382;2023-01-31T05:55:36;94053.41;;;0.11;100.00
6196;BME280;3131;42.630;23.382;2023-01-31T05:58:05;94070.86;;;0.08;100.00
6196;BME280;3131;42.630;23.382;2023-01-31T06:03:15;94075.53;;;0.17;100.00
6196;BME280;3131;42.630;23.382;2023-01-31T06:08:31;94063.87;;;0.19;100.00
6196;BME280;3131;42.630;23.382;2023-01-31T06:13:41;94074.47;;;0.24;100.00
6196;BME280;3131;42.630;23.382;2023-01-31T06:18:51;94072.83;;;0.36;100.00
6196;BME280;3131;42.630;23.382;2023-01-31T06:21:22;94081.34;;;0.29;100.00
6196;BME280;3131;42.630;23.382;2023-01-31T06:23:51;94073.70;;;0.35;100.00
6196;BME280;3131;42.630;23.382;2023-01-31T06:26:20;94078.56;;;0.38;100.00
6196;BME280;3131;42.630;23.382;2023-01-31T06:28:50;94085.84;;;0.43;100.00
6196;BME280;3131;42.630;23.382;2023-01-31T06:31:19;94097.34;;;0.45;100.00
6196;BME280;3131;42.630;23.382;2023-01-31T06:33:48;94093.02;;;0.51;100.00
6196;BME280;3131;42.630;23.382;2023-01-31T06:36:17;94098.31;;;0.53;100.00
6196;BME280;3131;42.630;23.382;2023-01-31T06:38:49;94096.13;;;0.57;100.00
6196;BME280;3131;42.630;23.382;2023-01-31T06:41:19;94089.59;;;0.55;100.00
6196;BME280;3131;42.630;23.382;2023-01-31T06:43:49;94094.05;;;0.57;100.00
6196;BME280;3131;42.630;23.382;2023-01-31T06:46:18;94103.07;;;0.59;100.00
6196;BME280;3131;42.630;23.382;2023-01-31T06:48:47;94098.38;;;0.63;100.00
6196;BME280;3131;42.630;23.382;2023-01-31T06:51:17;94102.43;;;0.66;100.00
6196;BME280;3131;42.630;23.382;2023-01-31T06:53:46;94110.75;;;0.65;100.00
6196;BME280;3131;42.630;23.382;2023-01-31T06:56:15;94129.30;;;0.66;100.00
6196;BME280;3131;42.630;23.382;2023-01-31T06:58:45;94122.72;;;0.65;100.00
6196;BME280;3131;42.630;23.382;2023-01-31T07:01:15;94126.01;;;0.66;100.00
6196;BME280;3131;42.630;23.382;2023-01-31T07:09:15;94122.98;;;0.83;100.00
6196;BME280;3131;42.630;23.382;2023-01-31T07:11:44;94047.31;;;0.33;100.00
6196;BME280;3131;42.630;23.382;2023-01-31T07:14:14;94130.20;;;0.77;100.00
6196;BME280;3131;42.630;23.382;2023-01-31T07:16:43;94120.17;;;0.80;100.00
6196;BME280;3131;42.630;23.382;2023-01-31T07:19:13;94119.77;;;0.79;100.00
6196;BME280;3131;42.630;23.382;2023-01-31T07:21:42;94112.88;;;0.87;100.00
6196;BME280;3131;42.630;23.382;2023-01-31T07:24:11;94126.16;;;0.98;100.00
6196;BME280;3131;42.630;23.382;2023-01-31T07:26:41;94133.50;;;1.01;100.00
6196;BME280;3131;42.630;23.382;2023-01-31T07:29:11;94128.61;;;1.00;100.00
6196;BME280;3131;42.630;23.382;2023-01-31T07:31:40;94146.52;;;0.96;100.00
6196;BME280;3131;42.630;23.382;2023-01-31T07:34:10;94122.03;;;0.99;100.00
6196;BME280;3131;42.630;23.382;2023-01-31T07:36:39;94121.84;;;0.91;100.00
6196;BME280;3131;42.630;23.382;2023-01-31T07:39:09;94123.48;;;0.92;100.00
6196;BME280;3131;42.630;23.382;2023-01-31T07:41:38;94139.52;;;0.96;100.00
6196;BME280;3131;42.630;23.382;2023-01-31T07:44:08;94127.80;;;0.99;100.00
6196;BME280;3131;42.630;23.382;2023-01-31T07:46:39;94129.03;;;1.11;100.00
6196;BME280;3131;42.630;23.382;2023-01-31T07:49:10;94137.34;;;1.10;100.00
6196;BME280;3131;42.630;23.382;2023-01-31T07:51:40;94128.78;;;1.19;100.00
6196;BME280;3131;42.630;23.382;2023-01-31T07:54:11;94128.12;;;1.25;100.00
6196;BME280;3131;42.630;23.382;2023-01-31T07:56:40;94142.05;;;1.29;100.00
6196;BME280;3131;42.630;23.382;2023-01-31T07:59:10;94132.63;;;1.27;100.00
6196;BME280;3131;42.630;23.382;2023-01-31T08:01:40;94134.48;;;1.32;100.00
6196;BME280;3131;42.630;23.382;2023-01-31T08:04:27;94138.06;;;1.37;100.00
6196;BME280;3131;42.630;23.382;2023-01-31T08:06:57;94142.75;;;1.56;100.00
6196;BME280;3131;42.630;23.382;2023-01-31T08:09:28;94131.24;;;1.54;100.00
6196;BME280;3131;42.630;23.382;2023-01-31T08:11:58;94124.28;;;1.74;100.00
6196;BME280;3131;42.630;23.382;2023-01-31T08:14:27;94130.02;;;1.76;100.00
6196;BME280;3131;42.630;23.382;2023-01-31T08:16:56;94129.23;;;1.52;100.00
6196;BME280;3131;42.630;23.382;2023-01-31T08:19:26;94126.64;;;1.55;100.00
6196;BME280;3131;42.630;23.382;2023-01-31T08:21:55;94119.75;;;1.73;100.00
6196;BME280;3131;42.630;23.382;2023-01-31T08:24:24;94122.66;;;1.84;100.00
6196;BME280;3131;42.630;23.382;2023-01-31T08:26:53;94112.52;;;1.89;100.00
6196;BME280;3131;42.630;23.382;2023-01-31T08:29:22;94114.23;;;2.09;100.00
6196;BME280;3131;42.630;23.382;2023-01-31T08:31:52;94121.73;;;2.19;100.00
6196;BME280;3131;42.630;23.382;2023-01-31T08:34:21;94112.28;;;2.27;100.00
6196;BME280;3131;42.630;23.382;2023-01-31T08:36:51;94127.97;;;2.50;100.00
6196;BME280;3131;42.630;23.382;2023-01-31T08:39:20;94119.95;;;2.33;100.00
6196;BME280;3131;42.630;23.382;2023-01-31T08:41:50;94123.48;;;2.27;100.00
6196;BME280;3131;42.630;23.382;2023-01-31T08:44:19;94130.92;;;2.07;100.00
6196;BME280;3131;42.630;23.382;2023-01-31T08:46:49;94113.61;;;1.94;100.00
6196;BME280;3131;42.630;23.382;2023-01-31T08:49:18;94121.02;;;2.16;100.00
6196;BME280;3131;42.630;23.382;2023-01-31T08:51:47;94122.47;;;2.21;100.00
6196;BME280;3131;42.630;23.382;2023-01-31T08:54:17;94126.36;;;2.28;100.00
6196;BME280;3131;42.630;23.382;2023-01-31T08:56:46;94124.39;;;2.15;100.00
6196;BME280;3131;42.630;23.382;2023-01-31T08:59:16;94130.92;;;2.07;100.00
6196;BME280;3131;42.630;23.382;2023-01-31T09:01:45;94138.42;;;2.05;100.00
6196;BME280;3131;42.630;23.382;2023-01-31T09:04:14;94130.04;;;2.08;100.00
6196;BME280;3131;42.630;23.382;2023-01-31T09:06:44;94123.67;;;2.33;100.00
6196;BME280;3131;42.630;23.382;2023-01-31T09:09:13;94129.49;;;5.44;100.00
6196;BME280;3131;42.630;23.382;2023-01-31T09:11:42;94127.84;;;7.20;100.00
6196;BME280;3131;42.630;23.382;2023-01-31T09:14:11;94132.84;;;7.56;96.96
6196;BME280;3131;42.630;23.382;2023-01-31T09:16:41;94140.41;;;8.51;88.56
6196;BME280;3131;42.630;23.382;2023-01-31T09:19:12;94138.34;;;8.51;84.89
6196;BME280;3131;42.630;23.382;2023-01-31T09:21:41;94155.91;;;6.82;90.69
6196;BME280;3131;42.630;23.382;2023-01-31T09:24:10;94146.55;;;4.70;100.00
6196;BME280;3131;42.630;23.382;2023-01-31T09:29:26;94128.13;;;5.70;100.00
6196;BME280;3131;42.630;23.382;2023-01-31T09:31:56;94119.19;;;5.66;100.00
6196;BME280;3131;42.630;23.382;2023-01-31T09:34:26;94129.60;;;6.89;92.71
6196;BME280;3131;42.630;23.382;2023-01-31T09:36:55;94126.44;;;5.06;100.00
6196;BME280;3131;42.630;23.382;2023-01-31T09:39:25;94126.08;;;5.94;99.03
6196;BME280;3131;42.630;23.382;2023-01-31T09:41:56;94117.92;;;5.26;100.00
6196;BME280;3131;42.630;23.382;2023-01-31T09:44:30;94121.00;;;6.79;96.34
6196;BME280;3131;42.630;23.382;2023-01-31T09:47:05;94129.09;;;7.20;86.40
6196;BME280;3131;42.630;23.382;2023-01-31T09:49:35;94116.53;;;6.24;89.01
6196;BME280;3131;42.630;23.382;2023-01-31T09:52:05;94099.30;;;4.74;100.00
6196;BME280;3131;42.630;23.382;2023-01-31T09:54:37;94107.14;;;7.02;94.05
6196;BME280;3131;42.630;23.382;2023-01-31T09:57:15;94121.39;;;6.34;87.92
6196;BME280;3131;42.630;23.382;2023-01-31T09:59:46;94107.45;;;5.10;98.06
6196;BME280;3131;42.630;23.382;2023-01-31T10:02:30;94095.55;;;5.72;100.00
6196;BME280;3131;42.630;23.382;2023-01-31T10:05:10;94100.63;;;6.55;93.55
6196;BME280;3131;42.630;23.382;2023-01-31T10:07:40;94093.50;;;8.45;79.11
6196;BME280;3131;42.630;23.382;2023-01-31T10:12:54;94105.69;;;9.90;68.73
6196;BME280;3131;42.630;23.382;2023-01-31T10:15:28;94097.13;;;10.46;64.36
6196;BME280;3131;42.630;23.382;2023-01-31T10:18:01;94100.93;;;8.66;73.42
6196;BME280;3131;42.630;23.382;2023-01-31T10:20:36;94118.58;;;5.70;87.36
6196;BME280;3131;42.630;23.382;2023-01-31T10:23:09;94100.41;;;4.59;100.00
6196;BME280;3131;42.630;23.382;2023-01-31T10:25:42;94095.66;;;4.88;100.00
6196;BME280;3131;42.630;23.382;2023-01-31T10:28:12;94084.26;;;4.49;100.00
6196;BME280;3131;42.630;23.382;2023-01-31T10:30:45;94087.03;;;5.11;100.00
6196;BME280;3131;42.630;23.382;2023-01-31T10:33:23;94085.55;;;5.56;97.62
6196;BME280;3131;42.630;23.382;2023-01-31T10:35:53;94081.30;;;5.09;97.72
6196;BME280;3131;42.630;23.382;2023-01-31T10:38:26;94085.65;;;5.05;100.00
6196;BME280;3131;42.630;23.382;2023-01-31T10:40:58;94078.84;;;4.41;100.00
6196;BME280;3131;42.630;23.382;2023-01-31T10:46:15;94079.28;;;5.40;100.00
6196;BME280;3131;42.630;23.382;2023-01-31T10:48:45;94077.69;;;7.20;89.28
6196;BME280;3131;42.630;23.382;2023-01-31T10:51:23;94072.98;;;7.50;85.59
6196;BME280;3131;42.630;23.382;2023-01-31T10:54:02;94084.28;;;8.11;80.12
6196;BME280;3131;42.630;23.382;2023-01-31T10:56:33;94093.00;;;8.85;71.69
6196;BME280;3131;42.630;23.382;2023-01-31T10:59:10;94104.44;;;9.95;63.75
6196;BME280;3131;42.630;23.382;2023-01-31T11:01:39;94097.41;;;8.02;72.29
6196;BME280;3131;42.630;23.382;2023-01-31T11:07:01;94092.02;;;6.45;88.22
6196;BME280;3131;42.630;23.382;2023-01-31T11:09:33;94092.69;;;5.15;97.38
6196;BME280;3131;42.630;23.382;2023-01-31T11:12:04;94090.47;;;4.75;100.00
6196;BME280;3131;42.630;23.382;2023-01-31T11:14:35;94090.70;;;4.01;100.00
6196;BME280;3131;42.630;23.382;2023-01-31T11:17:06;94077.69;;;3.58;100.00
6196;BME280;3131;42.630;23.382;2023-01-31T11:19:39;94091.18;;;3.35;100.00
6196;BME280;3131;42.630;23.382;2023-01-31T11:22:16;94084.36;;;3.30;100.00
6196;BME280;3131;42.630;23.382;2023-01-31T11:24:47;94077.99;;;3.14;100.00
6196;BME280;3131;42.630;23.382;2023-01-31T11:27:24;94070.58;;;2.84;100.00
6196;BME280;3131;42.630;23.382;2023-01-31T11:29:55;94075.02;;;2.77;100.00
6196;BME280;3131;42.630;23.382;2023-01-31T11:32:27;94086.28;;;2.65;100.00
6196;BME280;3131;42.630;23.382;2023-01-31T11:34:59;94082.84;;;2.78;100.00
6196;BME280;3131;42.630;23.382;2023-01-31T11:37:31;94077.39;;;2.70;100.00
6196;BME280;3131;42.630;23.382;2023-01-31T11:40:02;94083.11;;;2.62;100.00
6196;BME280;3131;42.630;23.382;2023-01-31T11:42:32;94072.91;;;2.68;100.00
6196;BME280;3131;42.630;23.382;2023-01-31T11:45:03;94063.73;;;2.78;100.00
6196;BME280;3131;42.630;23.382;2023-01-31T11:47:38;94084.91;;;2.89;100.00
6196;BME280;3131;42.630;23.382;2023-01-31T11:55:48;94065.83;;;2.88;100.00
6196;BME280;3131;42.630;23.382;2023-01-31T11:58:21;94040.41;;;2.71;100.00
6196;BME280;3131;42.630;23.382;2023-01-31T12:00:56;94051.36;;;2.77;100.00
6196;BME280;3131;42.630;23.382;2023-01-31T12:03:27;94063.11;;;2.84;100.00
6196;BME280;3131;42.630;23.382;2023-01-31T12:06:02;94068.81;;;2.36;100.00
6196;BME280;3131;42.630;23.382;2023-01-31T12:08:34;94063.64;;;2.30;100.00
6196;BME280;3131;42.630;23.382;2023-01-31T12:11:25;94060.91;;;2.16;100.00
6196;BME280;3131;42.630;23.382;2023-01-31T12:13:47;94056.73;;;2.06;100.00
6196;BME280;3131;42.630;23.382;2023-01-31T12:16:19;94061.00;;;2.03;100.00
6196;BME280;3131;42.630;23.382;2023-01-31T12:18:59;94060.71;;;2.00;100.00
6196;BME280;3131;42.630;23.382;2023-01-31T12:21:38;94058.84;;;2.16;100.00
6196;BME280;3131;42.630;23.382;2023-01-31T12:24:15;94071.23;;;2.17;100.00
6196;BME280;3131;42.630;23.382;2023-01-31T12:26:46;94055.26;;;2.13;100.00
6196;BME280;3131;42.630;23.382;2023-01-31T12:29:26;94056.42;;;2.04;100.00
6196;BME280;3131;42.630;23.382;2023-01-31T12:32:05;94061.40;;;2.14;100.00
6196;BME280;3131;42.630;23.382;2023-01-31T12:37:35;94063.91;;;2.45;100.00
6196;BME280;3131;42.630;23.382;2023-01-31T12:40:24;94069.49;;;2.40;100.00
6196;BME280;3131;42.630;23.382;2023-01-31T12:42:56;94073.71;;;2.38;100.00
6196;BME280;3131;42.630;23.382;2023-01-31T12:51:41;94067.02;;;2.19;100.00
6196;BME280;3131;42.630;23.382;2023-01-31T12:57:28;94080.57;;;2.32;100.00
6196;BME280;3131;42.630;23.382;2023-01-31T13:00:05;94070.91;;;2.15;100.00
6196;BME280;3131;42.630;23.382;2023-01-31T13:02:44;94067.05;;;2.28;100.00
6196;BME280;3131;42.630;23.382;2023-01-31T13:05:22;94064.88;;;2.41;100.00
6196;BME280;3131;42.630;23.382;2023-01-31T13:07:54;94076.22;;;2.48;100.00
6196;BME280;3131;42.630;23.382;2023-01-31T13:10:34;94075.40;;;2.17;100.00
6196;BME280;3131;42.630;23.382;2023-01-31T13:13:05;94076.76;;;2.03;100.00
6196;BME280;3131;42.630;23.382;2023-01-31T13:15:39;94075.12;;;1.70;100.00
6196;BME280;3131;42.630;23.382;2023-01-31T13:20:53;94072.17;;;1.60;100.00
6196;BME280;3131;42.630;23.382;2023-01-31T13:23:27;94078.41;;;1.71;100.00
6196;BME280;3131;42.630;23.382;2023-01-31T13:26:02;94086.85;;;1.89;100.00
6196;BME280;3131;42.630;23.382;2023-01-31T13:31:18;94091.71;;;1.92;100.00
6196;BME280;3131;42.630;23.382;2023-01-31T13:33:51;94090.59;;;1.89;100.00
6196;BME280;3131;42.630;23.382;2023-01-31T13:36:26;94089.83;;;1.86;100.00
6196;BME280;3131;42.630;23.382;2023-01-31T13:38:56;94095.79;;;1.82;100.00
6196;BME280;3131;42.630;23.382;2023-01-31T13:41:29;94100.28;;;1.62;100.00
6196;BME280;3131;42.630;23.382;2023-01-31T13:44:00;94090.69;;;1.75;100.00
6196;BME280;3131;42.630;23.382;2023-01-31T13:46:32;94103.53;;;1.53;100.00
6196;BME280;3131;42.630;23.382;2023-01-31T13:51:47;94094.50;;;1.62;100.00
6196;BME280;3131;42.630;23.382;2023-01-31T13:54:19;94098.12;;;1.65;100.00
6196;BME280;3131;42.630;23.382;2023-01-31T13:56:52;94106.16;;;1.60;100.00
6196;BME280;3131;42.630;23.382;2023-01-31T13:59:24;94098.27;;;1.60;100.00
6196;BME280;3131;42.630;23.382;2023-01-31T14:01:55;94101.34;;;1.67;100.00
6196;BME280;3131;42.630;23.382;2023-01-31T14:04:33;94098.05;;;1.67;100.00
6196;BME280;3131;42.630;23.382;2023-01-31T14:07:21;94102.11;;;1.57;100.00
6196;BME280;3131;42.630;23.382;2023-01-31T14:10:25;94115.63;;;1.62;100.00
6196;BME280;3131;42.630;23.382;2023-01-31T14:13:21;94106.09;;;1.61;100.00
6196;BME280;3131;42.630;23.382;2023-01-31T14:15:54;94108.65;;;1.60;100.00
6196;BME280;3131;42.630;23.382;2023-01-31T14:18:43;94098.12;;;1.53;100.00
6196;BME280;3131;42.630;23.382;2023-01-31T14:21:48;94098.05;;;1.55;100.00
6196;BME280;3131;42.630;23.382;2023-01-31T14:24:23;94120.27;;;1.59;100.00
6196;BME280;3131;42.630;23.382;2023-01-31T14:26:52;94110.27;;;1.61;100.00
6196;BME280;3131;42.630;23.382;2023-01-31T14:32:10;94122.64;;;1.62;100.00
6196;BME280;3131;42.630;23.382;2023-01-31T14:34:36;94112.05;;;1.57;100.00
6196;BME280;3131;42.630;23.382;2023-01-31T14:43:17;94129.66;;;1.75;100.00
6196;BME280;3131;42.630;23.382;2023-01-31T14:46:02;94137.02;;;1.66;100.00
6196;BME280;3131;42.630;23.382;2023-01-31T14:51:26;94140.08;;;1.61;100.00
6196;BME280;3131;42.630;23.382;2023-01-31T14:59:59;94143.78;;;1.51;100.00
6196;BME280;3131;42.630;23.382;2023-01-31T15:02:43;94149.03;;;1.43;100.00
6196;BME280;3131;42.630;23.382;2023-01-31T15:05:15;94158.31;;;1.38;100.00
6196;BME280;3131;42.630;23.382;2023-01-31T15:08:05;94164.63;;;1.35;100.00
6196;BME280;3131;42.630;23.382;2023-01-31T15:10:56;94177.42;;;1.36;100.00
6196;BME280;3131;42.630;23.382;2023-01-31T15:13:37;94172.73;;;1.28;100.00